Crane, Texas
Current Conditions -  °F | °C
As of 7:53 PM on Monday 24 Nov 2014 (Local Time) from KODO Reporting Station
Clear Clear  
Wind Chill: 42°   Ceiling: Unl
Heat Index: 46°   Visibility: 10mi
Dew Point:   Wind: 7mph
Humidity: 21%   Direction: 120°ESE
Pressure: 30.08"   Gusts: NA
Location:  31.4°N, 102.35°W
Report Text: KODO 250153Z AUTO 12006KT 10SM CLR 08/M13 A3008 RMK AO2 SLP181 T00781133
Loading
Personal Weather Stations






























Interactive Weather Map New forecast layout! Learn more

10-Day Weather Forecast

Advertisements
Track Severe Weather on mobile